Terminal Aerodrome Forecast
Issued by NWS

Home | Current Version | Previous Version | Graphics & Text | Print | Product List | Glossary On
Versions: 1 2 3 4 5 6 7 8 9 10 11 12 13 14 15
000
FTUS43 KGRB 020915 AAA
TAFAUW
TAF AMD
KAUW 020915Z 0209/0306 22006KT P6SM VCSH SCT050 BKN090
      WS012/25035KT
      TEMPO 0209/0212 4SM -TSRA BKN040CB
     FM021400 25010G17KT P6SM VCSH BKN035 BKN100
     FM022000 30011G18KT P6SM SCT035 BKN070
     FM030100 32007KT P6SM SCT050=

USA.gov is the U.S. government's official web portal to all federal, state and local government web resources and services.